Time;durP1;ratioP1;P1;durP2;ratioP2;P2;SDS_P1;SDS_P2;PMS_P1;PMS_P2;Temp;Humidity;BMP_temperature;BMP_pressure;BME280_temperature;BME280_humidity;BME280_pressure;Samples;Min_cycle;Max_cycle;Signal;HPM_P1;HPM_P2
2022/10/19 00:01:35;;;;;;;;;;;;;;;7.61;74.53223;103076.7;;;;-74
2022/10/19 00:06:34;;;;;;;;;;;;;;;7.59;74.35254;103082;;;;-74
2022/10/19 00:11:34;;;;;;;;;;;;;;;7.66;74.22266;103077.1;;;;-74
2022/10/19 00:12:08;;;;;;;2.6;1.4;;;;;;;;;;;;;-74
2022/10/19 00:16:35;;;;;;;;;;;;;;;7.68;74.36816;103069.6;;;;-74
2022/10/19 00:21:34;;;;;;;;;;;;;;;7.72;74.31934;103068;;;;-73
2022/10/19 00:26:34;;;;;;;;;;;;;;;7.73;74.31152;103064.9;;;;-72
2022/10/19 00:31:33;;;;;;;;;;;;;;;7.74;74.10254;103063.7;;;;-73
2022/10/19 00:36:34;;;;;;;;;;;;;;;7.82;74.01563;103059.1;;;;-74
2022/10/19 00:41:35;;;;;;;;;;;;;;;7.85;74.1084;103056.9;;;;-74
2022/10/19 00:42:08;;;;;;;1.9;1;;;;;;;;;;;;;-75
2022/10/19 00:46:34;;;;;;;;;;;;;;;7.91;73.97754;103055.7;;;;-74
2022/10/19 00:51:34;;;;;;;;;;;;;;;7.96;73.84277;103060.4;;;;-74
2022/10/19 00:56:34;;;;;;;;;;;;;;;8;73.85938;103062;;;;-74
2022/10/19 01:01:34;;;;;;;;;;;;;;;8.02;74.19336;103064.8;;;;-75
2022/10/19 01:06:34;;;;;;;;;;;;;;;8.08;73.7959;103066.1;;;;-74
2022/10/19 01:11:40;;;;;;;;;;;;;;;8.1;73.6123;103063.6;;;;-74
2022/10/19 01:12:14;;;;;;;1.7;1.1;;;;;;;;;;;;;-74
2022/10/19 01:16:41;;;;;;;;;;;;;;;8.16;73.65625;103060.9;;;;-74
2022/10/19 01:21:37;;;;;;;;;;;;;;;8.2;73.52051;103059.6;;;;-74
2022/10/19 01:26:44;;;;;;;;;;;;;;;8.31;73.43945;103058.4;;;;-74
2022/10/19 01:31:37;;;;;;;;;;;;;;;8.31;73.41699;103058.2;;;;-74
2022/10/19 01:36:40;;;;;;;;;;;;;;;8.35;73.20313;103055.1;;;;-73
2022/10/19 01:41:37;;;;;;;;;;;;;;;8.31;73.28516;103054;;;;-74
2022/10/19 01:42:13;;;;;;;2.6;1.1;;;;;;;;;;;;;-75
2022/10/19 01:46:36;;;;;;;;;;;;;;;8.29;73.43457;103045.2;;;;-74
2022/10/19 01:51:36;;;;;;;;;;;;;;;8.26;73.39746;103044.7;;;;-73
2022/10/19 01:56:34;;;;;;;;;;;;;;;8.16;73.43555;103044.3;;;;-75
2022/10/19 02:01:36;;;;;;;;;;;;;;;8.07;73.45313;103038.9;;;;-74
2022/10/19 02:06:34;;;;;;;;;;;;;;;8.01;73.42188;103040;;;;-76
2022/10/19 02:11:34;;;;;;;;;;;;;;;7.93;73.33203;103035.4;;;;-73
2022/10/19 02:12:11;;;;;;;1.6;0.8;;;;;;;;;;;;;-76
2022/10/19 02:16:37;;;;;;;;;;;;;;;7.81;73.62988;103031.2;;;;-75
2022/10/19 02:21:34;;;;;;;;;;;;;;;7.76;73.56641;103021.5;;;;-75
2022/10/19 02:26:34;;;;;;;;;;;;;;;7.67;73.69531;103018.2;;;;-74
2022/10/19 02:31:33;;;;;;;;;;;;;;;7.59;73.93457;103028.7;;;;-74
2022/10/19 02:36:33;;;;;;;;;;;;;;;7.49;73.80762;103023.9;;;;-74
2022/10/19 02:41:39;;;;;;;;;;;;;;;7.45;73.96484;103023.9;;;;-74
2022/10/19 02:42:12;;;;;;;1.9;0.8;;;;;;;;;;;;;-74
2022/10/19 02:46:38;;;;;;;;;;;;;;;7.39;73.66895;103019.2;;;;-74
2022/10/19 02:51:35;;;;;;;;;;;;;;;7.32;73.85547;103009.2;;;;-75
2022/10/19 02:56:34;;;;;;;;;;;;;;;7.3;73.87402;103007.9;;;;-74
2022/10/19 03:01:36;;;;;;;;;;;;;;;7.24;73.99512;103008.6;;;;-74
2022/10/19 03:06:33;;;;;;;;;;;;;;;7.17;73.90527;103003.3;;;;-74
2022/10/19 03:11:36;;;;;;;;;;;;;;;7.12;74.04102;103011.6;;;;-74
2022/10/19 03:12:10;;;;;;;2.3;0.8;;;;;;;;;;;;;-74
2022/10/19 03:16:33;;;;;;;;;;;;;;;7.08;74.14453;103011.9;;;;-74
2022/10/19 03:21:34;;;;;;;;;;;;;;;7.03;73.96875;103009.6;;;;-74
2022/10/19 03:26:34;;;;;;;;;;;;;;;6.96;74.0459;103000.2;;;;-75
2022/10/19 03:31:34;;;;;;;;;;;;;;;6.95;73.85742;102999.5;;;;-73
2022/10/19 03:36:34;;;;;;;;;;;;;;;6.87;74.19531;102995.4;;;;-73
2022/10/19 03:41:35;;;;;;;;;;;;;;;6.85;74.04883;102990.1;;;;-76
2022/10/19 03:42:09;;;;;;;2;0.8;;;;;;;;;;;;;-74
2022/10/19 03:46:34;;;;;;;;;;;;;;;6.79;74.27051;102992.1;;;;-74
2022/10/19 03:51:36;;;;;;;;;;;;;;;6.73;74.35742;103000.4;;;;-75
2022/10/19 03:56:35;;;;;;;;;;;;;;;6.75;74.10938;102997.5;;;;-75
2022/10/19 04:01:36;;;;;;;;;;;;;;;6.71;74.12305;102989.4;;;;-76
2022/10/19 04:06:35;;;;;;;;;;;;;;;6.68;74.04199;102984.8;;;;-76
2022/10/19 04:11:37;;;;;;;;;;;;;;;6.66;74.08203;102989;;;;-74
2022/10/19 04:12:09;;;;;;;1.8;0.7;;;;;;;;;;;;;-75
2022/10/19 04:16:35;;;;;;;;;;;;;;;6.62;74.1416;102989.8;;;;-76
2022/10/19 04:21:36;;;;;;;;;;;;;;;6.63;74.02246;102989.5;;;;-75
2022/10/19 04:26:34;;;;;;;;;;;;;;;6.65;74.00391;102988.9;;;;-74
2022/10/19 04:31:34;;;;;;;;;;;;;;;6.64;73.95996;102993.7;;;;-74
2022/10/19 04:36:34;;;;;;;;;;;;;;;6.66;73.87402;102997.6;;;;-75
2022/10/19 04:41:34;;;;;;;;;;;;;;;6.65;74.03809;102990.4;;;;-76
2022/10/19 04:42:09;;;;;;;1.4;0.6;;;;;;;;;;;;;-74
2022/10/19 04:46:34;;;;;;;;;;;;;;;6.64;73.99121;102992.3;;;;-73
2022/10/19 04:51:34;;;;;;;;;;;;;;;6.57;74.11133;102989.6;;;;-74
2022/10/19 04:56:34;;;;;;;;;;;;;;;6.54;74.13867;102983.3;;;;-75
2022/10/19 05:01:34;;;;;;;;;;;;;;;6.56;73.75977;102983.7;;;;-74
2022/10/19 05:06:34;;;;;;;;;;;;;;;6.47;74.05176;102980.7;;;;-74
2022/10/19 05:11:33;;;;;;;;;;;;;;;6.46;73.95996;102972.8;;;;-75
2022/10/19 05:12:10;;;;;;;1.2;0.7;;;;;;;;;;;;;-74
2022/10/19 05:16:33;;;;;;;;;;;;;;;6.4;74.02832;102966.4;;;;-74
2022/10/19 05:21:33;;;;;;;;;;;;;;;6.4;73.91699;102973.1;;;;-74
2022/10/19 05:26:34;;;;;;;;;;;;;;;6.35;74.0957;102975.9;;;;-74
2022/10/19 05:31:34;;;;;;;;;;;;;;;6.37;73.75977;102979.1;;;;-75
2022/10/19 05:36:35;;;;;;;;;;;;;;;6.33;73.94922;102976.1;;;;-74
2022/10/19 05:41:36;;;;;;;;;;;;;;;6.36;73.88867;102977.4;;;;-75
2022/10/19 05:42:10;;;;;;;2;0.9;;;;;;;;;;;;;-75
2022/10/19 05:46:34;;;;;;;;;;;;;;;6.35;73.91992;102982.9;;;;-74
2022/10/19 05:51:34;;;;;;;;;;;;;;;6.39;73.66406;102983.2;;;;-74
2022/10/19 05:56:35;;;;;;;;;;;;;;;6.44;73.80371;102985.8;;;;-76
2022/10/19 06:01:34;;;;;;;;;;;;;;;6.5;73.72461;102984.4;;;;-74
2022/10/19 06:06:34;;;;;;;;;;;;;;;6.49;73.71387;102981.8;;;;-74
2022/10/19 06:11:35;;;;;;;;;;;;;;;6.55;73.65723;102984.8;;;;-76
2022/10/19 06:12:12;;;;;;;1.6;0.8;;;;;;;;;;;;;-75
2022/10/19 06:16:34;;;;;;;;;;;;;;;6.56;73.50488;102985.8;;;;-75
2022/10/19 06:21:34;;;;;;;;;;;;;;;6.55;73.56934;102985;;;;-75
2022/10/19 06:26:34;;;;;;;;;;;;;;;6.57;73.62793;102988;;;;-75
2022/10/19 06:31:35;;;;;;;;;;;;;;;6.6;73.55566;102988.2;;;;-76
2022/10/19 06:36:34;;;;;;;;;;;;;;;6.6;73.50195;102999.5;;;;-76
2022/10/19 06:41:34;;;;;;;;;;;;;;;6.68;73.37109;102992.7;;;;-75
2022/10/19 06:42:10;;;;;;;2.6;1;;;;;;;;;;;;;-75
2022/10/19 06:46:33;;;;;;;;;;;;;;;6.7;73.35254;102987.1;;;;-75
2022/10/19 06:51:35;;;;;;;;;;;;;;;6.71;73.25684;102984.3;;;;-76
2022/10/19 06:56:34;;;;;;;;;;;;;;;6.74;73.17383;102980.2;;;;-75
2022/10/19 07:01:33;;;;;;;;;;;;;;;6.77;73.125;102977;;;;-77
2022/10/19 07:06:33;;;;;;;;;;;;;;;6.81;73.15234;102967.6;;;;-76
2022/10/19 07:11:34;;;;;;;;;;;;;;;6.92;73.79785;102961.4;;;;-75
2022/10/19 07:12:11;;;;;;;2.7;1;;;;;;;;;;;;;-75
2022/10/19 07:16:34;;;;;;;;;;;;;;;7.14;75.68262;102946;;;;-74
2022/10/19 07:21:39;;;;;;;;;;;;;;;7.35;74.81641;102949.6;;;;-78
2022/10/19 07:26:33;;;;;;;;;;;;;;;7.55;75.34473;102957.5;;;;-75
2022/10/19 07:31:35;;;;;;;;;;;;;;;7.76;73.33496;102961.1;;;;-74
2022/10/19 07:36:34;;;;;;;;;;;;;;;7.98;73.38281;102972.9;;;;-76
2022/10/19 07:41:34;;;;;;;;;;;;;;;8.19;73.25391;102969.9;;;;-76
2022/10/19 07:42:10;;;;;;;3.2;1;;;;;;;;;;;;;-75
2022/10/19 07:46:37;;;;;;;;;;;;;;;8.44;72.30176;102974.2;;;;-75
2022/10/19 07:51:35;;;;;;;;;;;;;;;8.68;71.69043;102973.2;;;;-75
2022/10/19 07:56:34;;;;;;;;;;;;;;;8.88;71.24902;102971;;;;-75
2022/10/19 08:01:35;;;;;;;;;;;;;;;9.08;71.14746;102967.5;;;;-75
2022/10/19 08:06:35;;;;;;;;;;;;;;;9.33;71.0791;102966.7;;;;-76
2022/10/19 08:11:36;;;;;;;;;;;;;;;9.56;71.35938;102971;;;;-75
2022/10/19 08:12:10;;;;;;;3.8;0.8;;;;;;;;;;;;;-76
2022/10/19 08:16:36;;;;;;;;;;;;;;;9.78;71.33984;102975.8;;;;-74
2022/10/19 08:21:34;;;;;;;;;;;;;;;10.04;71.1709;102973.7;;;;-74
2022/10/19 08:26:37;;;;;;;;;;;;;;;10.27;70.95508;102975.7;;;;-76
2022/10/19 08:31:35;;;;;;;;;;;;;;;10.46;70.8291;102972;;;;-74
2022/10/19 08:36:34;;;;;;;;;;;;;;;10.81;70.69824;102963.7;;;;-73
2022/10/19 08:41:38;;;;;;;;;;;;;;;11.26;69.40234;102958.3;;;;-74
2022/10/19 08:42:17;;;;;;;4.3;0.6;;;;;;;;;;;;;-75
2022/10/19 08:46:38;;;;;;;;;;;;;;;11.97;68.16699;102945.4;;;;-75
2022/10/19 08:51:40;;;;;;;;;;;;;;;12.2;67.6582;102949;;;;-73
2022/10/19 08:56:36;;;;;;;;;;;;;;;12.48;67.0752;102952;;;;-75
2022/10/19 09:01:45;;;;;;;;;;;;;;;12.54;66.5625;102937;;;;-74
2022/10/19 09:06:40;;;;;;;;;;;;;;;12.79;65.69629;102939.2;;;;-74
2022/10/19 09:11:35;;;;;;;;;;;;;;;12.96;65.9668;102931.1;;;;-74
2022/10/19 09:12:14;;;;;;;3.4;0.8;;;;;;;;;;;;;-75
2022/10/19 09:16:34;;;;;;;;;;;;;;;13.08;65.5918;102927.2;;;;-74
2022/10/19 09:21:38;;;;;;;;;;;;;;;13.13;65.33105;102921.8;;;;-75
2022/10/19 09:26:35;;;;;;;;;;;;;;;13.45;64.90918;102916;;;;-76
2022/10/19 09:31:34;;;;;;;;;;;;;;;13.69;64.48633;102916.2;;;;-74
2022/10/19 09:36:38;;;;;;;;;;;;;;;13.87;64.06348;102912.2;;;;-75
2022/10/19 09:41:34;;;;;;;;;;;;;;;14.03;63.20215;102892.6;;;;-75
2022/10/19 09:42:16;;;;;;;3.3;0.9;;;;;;;;;;;;;-74
2022/10/19 09:46:39;;;;;;;;;;;;;;;14.12;63.58496;102893.8;;;;-76
2022/10/19 09:51:41;;;;;;;;;;;;;;;14.22;63.53223;102895.9;;;;-73
2022/10/19 09:56:39;;;;;;;;;;;;;;;14.24;63.50098;102891.7;;;;-74
2022/10/19 10:01:37;;;;;;;;;;;;;;;14.44;62.68848;102894.5;;;;-74
2022/10/19 10:06:34;;;;;;;;;;;;;;;14.59;62.58691;102907.6;;;;-75
2022/10/19 10:11:36;;;;;;;;;;;;;;;14.73;62.4502;102897.7;;;;-75
2022/10/19 10:12:16;;;;;;;6.3;0.9;;;;;;;;;;;;;-74
2022/10/19 10:16:37;;;;;;;;;;;;;;;14.88;62.05371;102902.2;;;;-74
2022/10/19 10:21:35;;;;;;;;;;;;;;;14.73;62.01074;102896.4;;;;-75
2022/10/19 10:26:34;;;;;;;;;;;;;;;14.76;62.13867;102893.4;;;;-74
2022/10/19 10:31:33;;;;;;;;;;;;;;;14.9;62.42773;102890.5;;;;-76
2022/10/19 10:36:34;;;;;;;;;;;;;;;15.1;62.14258;102894.1;;;;-74
2022/10/19 10:41:34;;;;;;;;;;;;;;;15.2;61.72754;102886.3;;;;-74
2022/10/19 10:42:18;;;;;;;4.4;0.9;;;;;;;;;;;;;-76
2022/10/19 10:46:36;;;;;;;;;;;;;;;15.24;61.73438;102870.8;;;;-74
2022/10/19 10:51:38;;;;;;;;;;;;;;;15.24;61.39648;102877.4;;;;-74
2022/10/19 10:56:39;;;;;;;;;;;;;;;15.29;62.31445;102871.2;;;;-75
2022/10/19 11:01:36;;;;;;;;;;;;;;;15.29;61.58301;102850.9;;;;-76
2022/10/19 11:06:36;;;;;;;;;;;;;;;15.37;61.88672;102837.2;;;;-74
2022/10/19 11:11:37;;;;;;;;;;;;;;;15.41;61.74707;102821.1;;;;-75
2022/10/19 11:12:19;;;;;;;3.3;0.6;;;;;;;;;;;;;-74
2022/10/19 11:16:35;;;;;;;;;;;;;;;15.42;62.1084;102808.1;;;;-74
2022/10/19 11:21:37;;;;;;;;;;;;;;;15.43;61.41113;102794.8;;;;-74
2022/10/19 11:26:42;;;;;;;;;;;;;;;15.49;61.91504;102794.4;;;;-76
2022/10/19 11:31:41;;;;;;;;;;;;;;;15.58;61.33203;102783.5;;;;-74
2022/10/19 11:36:43;;;;;;;;;;;;;;;15.64;62.2627;102770;;;;-74
2022/10/19 11:41:40;;;;;;;;;;;;;;;15.72;61.84668;102756.9;;;;-75
2022/10/19 11:42:22;;;;;;;4.6;0.9;;;;;;;;;;;;;-75
2022/10/19 11:46:37;;;;;;;;;;;;;;;15.85;61.05273;102740.4;;;;-75
2022/10/19 11:51:38;;;;;;;;;;;;;;;15.9;61.35254;102737;;;;-74
2022/10/19 11:56:37;;;;;;;;;;;;;;;15.99;62.63867;102724.6;;;;-74
2022/10/19 12:01:39;;;;;;;;;;;;;;;16.04;61.46289;102716.6;;;;-73
2022/10/19 12:06:38;;;;;;;;;;;;;;;16.06;62.08496;102704.3;;;;-75
2022/10/19 12:11:41;;;;;;;;;;;;;;;16.05;60.73145;102688.3;;;;-74
2022/10/19 12:12:31;;;;;;;5.2;1.2;;;;;;;;;;;;;-75
2022/10/19 12:16:38;;;;;;;;;;;;;;;16.07;62.89746;102684.4;;;;-75
2022/10/19 12:21:36;;;;;;;;;;;;;;;16.09;64.87109;102670.3;;;;-74
2022/10/19 12:26:37;;;;;;;;;;;;;;;16.06;63.29102;102660.2;;;;-74
2022/10/19 12:31:34;;;;;;;;;;;;;;;16.15;62.03027;102657;;;;-74
2022/10/19 12:36:38;;;;;;;;;;;;;;;16.13;62.79395;102641.6;;;;-74
2022/10/19 12:41:38;;;;;;;;;;;;;;;16.09;62.71973;102637.3;;;;-73
2022/10/19 12:42:27;;;;;;;4.8;1.4;;;;;;;;;;;;;-74
2022/10/19 12:46:38;;;;;;;;;;;;;;;16.12;61.72266;102636.3;;;;-74
2022/10/19 12:51:43;;;;;;;;;;;;;;;16.1;60.38965;102629.1;;;;-74
2022/10/19 12:56:33;;;;;;;;;;;;;;;16.15;60.25;102612.8;;;;-74
2022/10/19 13:01:45;;;;;;;;;;;;;;;16.1;60.46875;102612.8;;;;-74
2022/10/19 13:06:39;;;;;;;;;;;;;;;16.12;61.33887;102595.9;;;;-74
2022/10/19 13:11:34;;;;;;;;;;;;;;;16.04;60.28027;102590.8;;;;-75
2022/10/19 13:12:44;;;;;;;8.5;1.3;;;;;;;;;;;;;-74
2022/10/19 13:16:56;;;;;;;;;;;;;;;16.08;62.26953;102590.4;;;;-74
2022/10/19 13:21:45;;;;;;;;;;;;;;;16.15;65.00391;102572.3;;;;-74
2022/10/19 13:26:37;;;;;;;;;;;;;;;16.23;62.44629;102570.9;;;;-74
2022/10/19 13:31:36;;;;;;;;;;;;;;;16.25;63.25;102563.8;;;;-74
2022/10/19 13:36:37;;;;;;;;;;;;;;;16.27;62.73438;102566.5;;;;-74
2022/10/19 13:41:44;;;;;;;;;;;;;;;16.22;61.4209;102559.2;;;;-74
2022/10/19 13:42:30;;;;;;;8;1.3;;;;;;;;;;;;;-74
2022/10/19 13:46:42;;;;;;;;;;;;;;;16.23;61.56738;102561.3;;;;-74
2022/10/19 13:51:38;;;;;;;;;;;;;;;16.24;61.84082;102563.7;;;;-75
2022/10/19 13:56:45;;;;;;;;;;;;;;;16.2;61.72266;102568.3;;;;-74
2022/10/19 14:01:40;;;;;;;;;;;;;;;16.17;62.47363;102558.1;;;;-74
2022/10/19 14:06:36;;;;;;;;;;;;;;;16.19;61.90039;102556;;;;-74
2022/10/19 14:11:35;;;;;;;;;;;;;;;16.18;61.44922;102560.2;;;;-74
2022/10/19 14:12:29;;;;;;;9.2;1.4;;;;;;;;;;;;;-74
2022/10/19 14:16:33;;;;;;;;;;;;;;;16.12;61.62109;102555.7;;;;-74
2022/10/19 14:21:37;;;;;;;;;;;;;;;16;62.12109;102550.9;;;;-74
2022/10/19 14:26:33;;;;;;;;;;;;;;;15.9;63.06543;102562.1;;;;-74
2022/10/19 14:31:36;;;;;;;;;;;;;;;15.75;63.52734;102557.9;;;;-74
2022/10/19 14:36:36;;;;;;;;;;;;;;;15.66;64.38086;102546.9;;;;-75
2022/10/19 14:41:37;;;;;;;;;;;;;;;15.6;64.41699;102549.6;;;;-74
2022/10/19 14:42:38;;;;;;;8;1.5;;;;;;;;;;;;;-73
2022/10/19 14:46:34;;;;;;;;;;;;;;;15.55;63.97168;102539;;;;-75
2022/10/19 14:51:40;;;;;;;;;;;;;;;15.47;64.55566;102518;;;;-74
2022/10/19 14:56:36;;;;;;;;;;;;;;;15.4;64.37598;102518.3;;;;-74
2022/10/19 15:01:35;;;;;;;;;;;;;;;15.29;65.19141;102510.8;;;;-73
2022/10/19 15:06:41;;;;;;;;;;;;;;;15.21;65.125;102499.1;;;;-74
2022/10/19 15:11:35;;;;;;;;;;;;;;;15.12;65.48047;102497.8;;;;-74
2022/10/19 15:12:37;;;;;;;5.7;1.7;;;;;;;;;;;;;-73
2022/10/19 15:16:43;;;;;;;;;;;;;;;15.04;65.44727;102485.8;;;;-75
2022/10/19 15:21:36;;;;;;;;;;;;;;;14.97;65.61719;102476.5;;;;-74
2022/10/19 15:26:34;;;;;;;;;;;;;;;14.88;65.32227;102464.5;;;;-74
2022/10/19 15:31:33;;;;;;;;;;;;;;;14.77;65.53027;102464.3;;;;-74
2022/10/19 15:36:34;;;;;;;;;;;;;;;14.67;65.70605;102461.5;;;;-74
2022/10/19 15:41:34;;;;;;;;;;;;;;;14.54;65.77637;102453.8;;;;-73
2022/10/19 15:42:42;;;;;;;5.2;1.4;;;;;;;;;;;;;-76
2022/10/19 15:46:35;;;;;;;;;;;;;;;14.4;65.67773;102440.1;;;;-74
2022/10/19 15:51:41;;;;;;;;;;;;;;;14.26;65.78125;102432.7;;;;-75
2022/10/19 15:56:34;;;;;;;;;;;;;;;14.14;65.67383;102427;;;;-75
2022/10/19 16:01:34;;;;;;;;;;;;;;;14.01;65.6084;102415.1;;;;-73
2022/10/19 16:06:34;;;;;;;;;;;;;;;13.89;66.18457;102410.3;;;;-74
2022/10/19 16:11:35;;;;;;;;;;;;;;;13.76;65.69336;102406;;;;-75
2022/10/19 16:12:35;;;;;;;5;1.6;;;;;;;;;;;;;-75
2022/10/19 16:16:34;;;;;;;;;;;;;;;13.63;66.06738;102395.2;;;;-75
2022/10/19 16:21:35;;;;;;;;;;;;;;;13.52;66.15039;102388.5;;;;-73
2022/10/19 16:26:34;;;;;;;;;;;;;;;13.39;66.04004;102387.2;;;;-74
2022/10/19 16:31:36;;;;;;;;;;;;;;;13.29;66.57422;102387.6;;;;-73
2022/10/19 16:36:33;;;;;;;;;;;;;;;13.18;66.51172;102384.8;;;;-75
2022/10/19 16:41:34;;;;;;;;;;;;;;;13.06;66.67383;102390.7;;;;-73
2022/10/19 16:42:37;;;;;;;4.2;1.8;;;;;;;;;;;;;-74
2022/10/19 16:46:33;;;;;;;;;;;;;;;12.95;66.57813;102389;;;;-75
2022/10/19 16:51:39;;;;;;;;;;;;;;;12.87;66.36426;102386.4;;;;-74
2022/10/19 16:56:34;;;;;;;;;;;;;;;12.74;67.08398;102375.3;;;;-73
2022/10/19 17:01:34;;;;;;;;;;;;;;;12.65;66.59961;102363.8;;;;-75
2022/10/19 17:06:36;;;;;;;;;;;;;;;12.57;66.77832;102350.2;;;;-75
2022/10/19 17:11:34;;;;;;;;;;;;;;;12.5;67.02344;102349.7;;;;-75
2022/10/19 17:12:41;;;;;;;7.1;2.1;;;;;;;;;;;;;-74
2022/10/19 17:16:35;;;;;;;;;;;;;;;12.41;67.18848;102344.5;;;;-73
2022/10/19 17:21:36;;;;;;;;;;;;;;;12.33;67.35547;102349;;;;-74
2022/10/19 17:26:34;;;;;;;;;;;;;;;12.28;67.55762;102352.5;;;;-74
2022/10/19 17:31:34;;;;;;;;;;;;;;;12.21;67.57031;102348.4;;;;-74
2022/10/19 17:36:38;;;;;;;;;;;;;;;12.13;67.54688;102340;;;;-74
2022/10/19 17:41:33;;;;;;;;;;;;;;;12.05;67.96973;102336.5;;;;-75
2022/10/19 17:42:40;;;;;;;5.5;2.1;;;;;;;;;;;;;-74
2022/10/19 17:46:34;;;;;;;;;;;;;;;11.98;67.98047;102335;;;;-75
2022/10/19 17:51:34;;;;;;;;;;;;;;;11.9;68.33594;102344.4;;;;-74
2022/10/19 17:56:34;;;;;;;;;;;;;;;11.83;68.52539;102350;;;;-74
2022/10/19 18:01:33;;;;;;;;;;;;;;;11.74;68.55566;102346.3;;;;-75
2022/10/19 18:06:34;;;;;;;;;;;;;;;11.68;68.72461;102356;;;;-74
2022/10/19 18:11:35;;;;;;;;;;;;;;;11.61;68.75781;102356.1;;;;-76
2022/10/19 18:12:41;;;;;;;6.9;2.6;;;;;;;;;;;;;-74
2022/10/19 18:16:34;;;;;;;;;;;;;;;11.56;68.76172;102359;;;;-74
2022/10/19 18:21:34;;;;;;;;;;;;;;;11.48;69.29395;102354.5;;;;-74
2022/10/19 18:26:34;;;;;;;;;;;;;;;11.46;69.04688;102368.3;;;;-74
2022/10/19 18:31:34;;;;;;;;;;;;;;;11.37;69.25488;102373;;;;-74
2022/10/19 18:36:33;;;;;;;;;;;;;;;11.33;69.22461;102365.8;;;;-74
2022/10/19 18:41:34;;;;;;;;;;;;;;;11.23;69.47559;102345.1;;;;-76
2022/10/19 18:42:42;;;;;;;5.7;2.7;;;;;;;;;;;;;-76
2022/10/19 18:46:34;;;;;;;;;;;;;;;11.19;69.78027;102327.7;;;;-75
2022/10/19 18:51:33;;;;;;;;;;;;;;;11.13;69.68262;102309.7;;;;-76
2022/10/19 18:56:35;;;;;;;;;;;;;;;11.05;69.75977;102308.9;;;;-76
2022/10/19 19:01:33;;;;;;;;;;;;;;;10.98;69.92578;102317.9;;;;-74
2022/10/19 19:06:35;;;;;;;;;;;;;;;10.93;69.9834;102309;;;;-75
2022/10/19 19:11:36;;;;;;;;;;;;;;;10.84;70.55957;102284.8;;;;-75
2022/10/19 19:12:44;;;;;;;5.6;2.6;;;;;;;;;;;;;-76
2022/10/19 19:16:35;;;;;;;;;;;;;;;10.8;70.24219;102278.1;;;;-73
2022/10/19 19:21:35;;;;;;;;;;;;;;;10.74;70.47656;102271.4;;;;-74
2022/10/19 19:26:35;;;;;;;;;;;;;;;10.65;70.46191;102271.4;;;;-75
2022/10/19 19:31:36;;;;;;;;;;;;;;;10.63;70.63672;102274;;;;-75
2022/10/19 19:36:33;;;;;;;;;;;;;;;10.56;70.79102;102243.8;;;;-74
2022/10/19 19:41:33;;;;;;;;;;;;;;;10.52;70.98535;102218.1;;;;-76
2022/10/19 19:42:44;;;;;;;7.3;2.7;;;;;;;;;;;;;-75
2022/10/19 19:46:34;;;;;;;;;;;;;;;10.46;71.05176;102202.2;;;;-74
2022/10/19 19:51:34;;;;;;;;;;;;;;;10.42;70.91309;102191.4;;;;-74
2022/10/19 19:56:35;;;;;;;;;;;;;;;10.38;71.06152;102177.3;;;;-74
2022/10/19 20:01:36;;;;;;;;;;;;;;;10.34;71.3877;102181.2;;;;-74
2022/10/19 20:06:34;;;;;;;;;;;;;;;10.29;71.64551;102178;;;;-74
2022/10/19 20:11:34;;;;;;;;;;;;;;;10.25;71.61719;102174.4;;;;-74
2022/10/19 20:12:45;;;;;;;9.3;2.6;;;;;;;;;;;;;-75
2022/10/19 20:16:35;;;;;;;;;;;;;;;10.21;71.79785;102176.2;;;;-75
2022/10/19 20:21:34;;;;;;;;;;;;;;;10.17;72.14844;102169.3;;;;-76
2022/10/19 20:26:33;;;;;;;;;;;;;;;10.12;72.26074;102157.2;;;;-75
2022/10/19 20:31:37;;;;;;;;;;;;;;;10.1;72.33398;102157.7;;;;-76
2022/10/19 20:36:33;;;;;;;;;;;;;;;10.05;72.25977;102158;;;;-75
2022/10/19 20:41:42;;;;;;;;;;;;;;;10.02;72.16504;102142.1;;;;-75
2022/10/19 20:42:47;;;;;;;7.5;3.1;;;;;;;;;;;;;-74
2022/10/19 20:46:35;;;;;;;;;;;;;;;9.97;72.55469;102122.4;;;;-74
2022/10/19 20:51:35;;;;;;;;;;;;;;;9.94;72.48438;102128.1;;;;-74
2022/10/19 20:56:34;;;;;;;;;;;;;;;9.92;72.68066;102127.8;;;;-74
2022/10/19 21:01:34;;;;;;;;;;;;;;;9.88;72.59668;102119;;;;-75
2022/10/19 21:06:34;;;;;;;;;;;;;;;9.83;72.49902;102108.2;;;;-74
2022/10/19 21:11:37;;;;;;;;;;;;;;;9.77;72.92188;102109.4;;;;-73
2022/10/19 21:12:47;;;;;;;9.8;3.2;;;;;;;;;;;;;-74
2022/10/19 21:16:34;;;;;;;;;;;;;;;9.76;72.74316;102112.9;;;;-75
2022/10/19 21:21:34;;;;;;;;;;;;;;;9.7;72.74316;102114.4;;;;-75
2022/10/19 21:26:34;;;;;;;;;;;;;;;9.67;72.89551;102123.1;;;;-75
2022/10/19 21:31:33;;;;;;;;;;;;;;;9.64;72.82129;102122.2;;;;-75
2022/10/19 21:36:33;;;;;;;;;;;;;;;9.59;72.95801;102112.5;;;;-75
2022/10/19 21:41:33;;;;;;;;;;;;;;;9.54;73.02734;102108.5;;;;-74
2022/10/19 21:42:47;;;;;;;7.2;3.1;;;;;;;;;;;;;-75
2022/10/19 21:46:33;;;;;;;;;;;;;;;9.53;72.91504;102111.3;;;;-74
2022/10/19 21:51:36;;;;;;;;;;;;;;;9.47;73.14648;102101.9;;;;-74
2022/10/19 21:56:33;;;;;;;;;;;;;;;9.45;73.21094;102100.3;;;;-74
2022/10/19 22:01:34;;;;;;;;;;;;;;;9.41;73.16992;102093.7;;;;-74
2022/10/19 22:06:34;;;;;;;;;;;;;;;9.35;73.26074;102098.8;;;;-74
2022/10/19 22:11:34;;;;;;;;;;;;;;;9.33;73.24512;102094.3;;;;-74
2022/10/19 22:12:48;;;;;;;8.6;2.9;;;;;;;;;;;;;-75
2022/10/19 22:16:35;;;;;;;;;;;;;;;9.31;73.18848;102081;;;;-74
2022/10/19 22:21:34;;;;;;;;;;;;;;;9.27;73.02734;102073.3;;;;-73
2022/10/19 22:26:34;;;;;;;;;;;;;;;9.22;73.25977;102054;;;;-74
2022/10/19 22:31:34;;;;;;;;;;;;;;;9.18;73.2334;102049;;;;-73
2022/10/19 22:36:35;;;;;;;;;;;;;;;9.15;73.19434;102050;;;;-74
2022/10/19 22:46:33;;;;;;;;;;;;;;;9.12;73.46582;102038.7;;;;-75
2022/10/19 22:51:33;;;;;;;;;;;;;;;9.09;73.34863;102033.2;;;;-74
2022/10/19 22:56:33;;;;;;;;;;;;;;;9.04;73.41895;102027.9;;;;-75
2022/10/19 23:01:35;;;;;;;;;;;;;;;9.04;73.01953;102014.6;;;;-74
2022/10/19 23:06:33;;;;;;;;;;;;;;;8.97;73.24023;102004.6;;;;-74
2022/10/19 23:11:33;;;;;;;;;;;;;;;8.96;73.55957;101992.5;;;;-74
2022/10/19 23:12:51;;;;;;;6.6;2.6;;;;;;;;;;;;;-73
2022/10/19 23:16:33;;;;;;;;;;;;;;;8.95;73.63574;101987.1;;;;-74
2022/10/19 23:21:33;;;;;;;;;;;;;;;8.92;73.62891;101981.2;;;;-74
2022/10/19 23:26:34;;;;;;;;;;;;;;;8.88;73.50195;101968.9;;;;-74
2022/10/19 23:31:33;;;;;;;;;;;;;;;8.88;74.05566;101955.3;;;;-74
2022/10/19 23:36:33;;;;;;;;;;;;;;;8.84;73.82715;101956.6;;;;-74
2022/10/19 23:41:33;;;;;;;;;;;;;;;8.84;73.80469;101944.8;;;;-74
2022/10/19 23:42:52;;;;;;;6.4;2.4;;;;;;;;;;;;;-74
2022/10/19 23:46:33;;;;;;;;;;;;;;;8.81;73.88867;101940.1;;;;-74
2022/10/19 23:51:33;;;;;;;;;;;;;;;8.81;73.85352;101933.2;;;;-74
2022/10/19 23:56:34;;;;;;;;;;;;;;;8.78;74.26855;101937;;;;-74
